Forside
METAR-TAF:

METAR-TAF

Lufthavne :

Athen Internationale Lufthavn

Athen, Grækenland

Breddekreds: 37-56N, længdekreds: 023-56E, højde: 94 m

Aktuelle vejr

Denne rapport blev lavet for 33 minutter siden, kl. 15:50 UTC
Vind 9 kt fra nordnordøst
Temperatur 19°C
Fugtighed 56%
Tryk 1020 hPa
Sigt 10 km eller mere
Nogle få skyer i en højde af 3000 ft

METAR: LGAV 161550Z 02009KT 9999 FEW030 19/10 Q1020 NOSIG

Tid: 19:23 (16:23 UTC)

Vejrudsigter

Denne rapport blev lavet for 5 timer og 23 minutter siden, kl. 11:00 UTC
Foreløbig gælder fra 16 på 12 UTC til 17 på 12 UTC
Vind 15 kt fra nordnordøst
Sigt 10 km eller mere
Spredte skyer i en højde af 2500 ft
ændring
fra 16 på 18 UTC til 16 på 20 UTC
Vind 10 kt fra nordnordvest
ændring
fra 17 på 06 UTC til 17 på 08 UTC
Vind 15 kt fra nordnordøst

TAF: LGAV 161100Z 1612/1712 02015KT 9999 SCT025 BECMG 1618/1620 34010KT BECMG 1706/1708 02015KT

Vejrobservationer og prognoser fra mere end 4000 lufthavne (METAR og TAF).

De gule og røde prikker repræsenterer de meteorologiske stationer.

Flyt musen over at se navnet på stationen.

Så klik over at se vejr observationer og prognoser.

At skifte det kort: Klik på de grønne knapper med et sort kors for at zoome ind; på den grønne knap med en bindestreg for at zoome ud; eller på de grønne pile for tilstødende kort.


METAR-TAF: